Terminal Aerodrome Forecast
Issued by NWS Wilmington, OH

Home | Current Version | Previous Version | Text Only | Print | Product List | Glossary On
Versions: 1 2 3 4 5 6 7 8 9 10 11 12 13 14
000
FTUS41 KILN 281100
TAFCMH
TAF
KCMH 281139Z 2812/2912 33008KT 5SM BR OVC008
      TEMPO 2812/2814 -SN SCT008 OVC015
     FM281400 34008KT P6SM OVC015
     FM281800 24008KT P6SM OVC020
     FM290600 33003KT P6SM OVC015=

USA.gov is the U.S. government's official web portal to all federal, state and local government web resources and services.